createdAt,value
2018-09-02T00:00:27.495Z,12.87
2018-09-02T00:02:55.202Z,12.70
2018-09-02T00:05:22.876Z,12.50
2018-09-02T00:07:50.579Z,12.63
2018-09-02T00:10:18.264Z,13.37
2018-09-02T00:12:46.686Z,13.17
2018-09-02T00:15:14.386Z,12.37
2018-09-02T00:17:42.130Z,15.27
2018-09-02T00:20:09.814Z,12.53
2018-09-02T00:22:37.559Z,12.17
2018-09-02T00:25:05.275Z,13.27
2018-09-02T00:27:32.934Z,12.83
2018-09-02T00:30:00.640Z,12.73
2018-09-02T00:32:28.422Z,13.13
2018-09-02T00:34:56.094Z,11.87
2018-09-02T00:37:24.155Z,12.63
2018-09-02T00:39:51.806Z,11.80
2018-09-02T00:42:19.481Z,11.57
2018-09-02T00:44:47.199Z,12.70
2018-09-02T00:47:14.865Z,13.13
2018-09-02T00:49:42.572Z,12.70
2018-09-02T00:52:10.293Z,12.47
2018-09-02T00:54:37.983Z,13.73
2018-09-02T00:57:05.683Z,14.20
2018-09-02T00:59:33.438Z,14.90
2018-09-02T01:02:01.125Z,14.83
2018-09-02T01:04:28.796Z,15.63
2018-09-02T01:06:56.486Z,14.97
2018-09-02T01:09:24.155Z,15.77
2018-09-02T01:11:51.811Z,15.87
2018-09-02T01:14:19.496Z,16.83
2018-09-02T01:16:47.163Z,16.80
2018-09-02T01:19:14.835Z,15.93
2018-09-02T01:21:42.578Z,16.37
2018-09-02T01:24:10.272Z,15.70
2018-09-02T01:26:37.933Z,16.17
2018-09-02T01:29:05.613Z,16.17
2018-09-02T01:31:33.293Z,15.47
2018-09-02T01:34:01.009Z,15.97
2018-09-02T01:36:28.700Z,15.30
2018-09-02T01:38:56.529Z,15.80
2018-09-02T01:41:24.189Z,15.43
2018-09-02T01:43:51.883Z,15.60
2018-09-02T01:46:19.555Z,14.37
2018-09-02T01:48:47.190Z,14.83
2018-09-02T01:51:14.887Z,14.60
2018-09-02T01:53:42.550Z,15.33
2018-09-02T01:56:10.222Z,15.03
2018-09-02T01:58:37.942Z,15.60
2018-09-02T02:01:06.027Z,13.57
2018-09-02T02:03:33.713Z,14.73
2018-09-02T02:06:01.406Z,12.97
2018-09-02T02:08:29.045Z,13.63
2018-09-02T02:10:56.704Z,12.77
2018-09-02T02:13:24.389Z,13.20
2018-09-02T02:15:52.030Z,12.80
2018-09-02T02:18:19.699Z,13.10
2018-09-02T02:20:47.448Z,13.43
2018-09-02T02:23:15.153Z,12.73
2018-09-02T02:25:42.814Z,13.23
2018-09-02T02:28:10.493Z,13.73
2018-09-02T02:30:38.179Z,13.90
2018-09-02T02:33:05.853Z,13.27
2018-09-02T02:35:33.549Z,14.53
2018-09-02T02:38:01.210Z,14.20
2018-09-02T02:40:28.873Z,14.90
2018-09-02T02:42:56.570Z,15.67
2018-09-02T02:45:24.212Z,14.70
2018-09-02T02:47:51.865Z,15.17
2018-09-02T02:50:19.610Z,14.90
2018-09-02T02:52:52.693Z,14.13
2018-09-02T02:55:20.399Z,14.10
2018-09-02T02:57:48.068Z,14.17
2018-09-02T03:00:15.730Z,13.00
2018-09-02T03:02:43.412Z,13.33
2018-09-02T03:05:11.084Z,13.90
2018-09-02T03:07:38.737Z,14.23
2018-09-02T03:10:06.514Z,14.73
2018-09-02T03:12:34.190Z,14.20
2018-09-02T03:15:01.899Z,13.63
2018-09-02T03:17:29.602Z,13.67
2018-09-02T03:19:57.322Z,13.97
2018-09-02T03:22:25.231Z,13.37
2018-09-02T03:24:52.929Z,13.00
2018-09-02T03:27:20.593Z,13.97
2018-09-02T03:29:48.271Z,13.40
2018-09-02T03:32:15.986Z,14.13
2018-09-02T03:34:43.663Z,13.37
2018-09-02T03:37:11.334Z,15.00
2018-09-02T03:39:39.039Z,15.07
2018-09-02T03:42:06.875Z,12.70
2018-09-02T03:44:34.613Z,14.40
2018-09-02T03:47:02.310Z,14.70
2018-09-02T03:49:29.969Z,15.87
2018-09-02T03:51:57.633Z,16.27
2018-09-02T03:54:25.315Z,17.27
2018-09-02T03:56:53.002Z,17.07
2018-09-02T03:59:20.770Z,16.37
2018-09-02T04:01:48.453Z,17.37
2018-09-02T04:04:16.130Z,17.70
2018-09-02T04:06:43.809Z,17.23
2018-09-02T04:09:11.770Z,17.37
2018-09-02T04:11:39.781Z,17.73
2018-09-02T04:14:07.584Z,15.70
2018-09-02T04:16:35.762Z,17.73
2018-09-02T04:19:03.889Z,17.47
2018-09-02T04:21:31.572Z,15.77
2018-09-02T04:23:59.298Z,15.33
2018-09-02T04:26:26.945Z,15.30
2018-09-02T04:28:54.702Z,14.50
2018-09-02T04:31:22.647Z,13.27
2018-09-02T04:33:50.427Z,13.77
2018-09-02T04:36:18.061Z,12.93
2018-09-02T04:38:45.751Z,12.50
2018-09-02T04:41:13.474Z,12.83
2018-09-02T04:43:41.123Z,13.90
2018-09-02T04:46:08.806Z,14.43
2018-09-02T04:48:36.492Z,14.53
2018-09-02T04:51:04.153Z,15.10
2018-09-02T04:53:31.849Z,15.90
2018-09-02T04:55:59.615Z,13.90
2018-09-02T04:58:27.252Z,14.00
2018-09-02T05:00:54.947Z,13.70
2018-09-02T05:03:22.623Z,13.87
2018-09-02T05:05:50.281Z,13.30
2018-09-02T05:08:17.953Z,14.17
2018-09-02T05:10:45.626Z,14.13
2018-09-02T05:13:13.406Z,12.87
2018-09-02T05:15:41.105Z,13.87
2018-09-02T05:18:08.872Z,12.70
2018-09-02T05:20:36.547Z,13.20
2018-09-02T05:23:04.350Z,13.07
2018-09-02T05:25:32.009Z,13.10
2018-09-02T05:27:59.857Z,12.93
2018-09-02T05:30:27.653Z,12.53
2018-09-02T05:32:55.371Z,11.83
2018-09-02T05:35:23.022Z,12.40
2018-09-02T05:37:50.760Z,12.43
2018-09-02T05:40:18.422Z,13.63
2018-09-02T05:42:46.102Z,13.17
2018-09-02T05:45:13.808Z,13.47
2018-09-02T05:47:41.458Z,13.07
2018-09-02T05:50:09.154Z,12.40
2018-09-02T05:52:36.831Z,13.30
2018-09-02T05:55:04.905Z,12.47
2018-09-02T05:57:32.634Z,12.00
2018-09-02T06:00:00.345Z,11.13
2018-09-02T06:02:28.022Z,12.10
2018-09-02T06:04:55.720Z,11.63
2018-09-02T06:07:23.439Z,10.87
2018-09-02T06:09:51.141Z,12.13
2018-09-02T06:12:18.847Z,11.30
2018-09-02T06:14:46.555Z,12.03
2018-09-02T06:17:14.339Z,12.07
2018-09-02T06:19:42.023Z,12.73
2018-09-02T06:22:09.718Z,11.90
2018-09-02T06:24:37.407Z,11.17
2018-09-02T06:27:05.450Z,12.13
2018-09-02T06:29:33.134Z,12.60
2018-09-02T06:32:00.802Z,11.97
2018-09-02T06:34:28.474Z,12.07
2018-09-02T06:36:56.166Z,12.03
2018-09-02T06:39:23.900Z,11.17
2018-09-02T06:41:51.543Z,11.33
2018-09-02T06:44:19.235Z,12.73
2018-09-02T06:46:46.902Z,11.90
2018-09-02T06:49:14.558Z,12.30
2018-09-02T06:51:42.249Z,12.90
2018-09-02T06:54:10.041Z,12.43
2018-09-02T06:56:37.695Z,11.93
2018-09-02T06:59:05.411Z,13.30
2018-09-02T07:01:33.074Z,12.20
2018-09-02T07:04:00.758Z,12.20
2018-09-02T07:06:28.802Z,11.90
2018-09-02T07:08:56.490Z,12.07
2018-09-02T07:11:24.192Z,11.87
2018-09-02T07:13:51.893Z,11.30
2018-09-02T07:16:19.596Z,12.20
2018-09-02T07:18:47.288Z,11.80
2018-09-02T07:21:14.987Z,11.53
2018-09-02T07:23:42.668Z,10.93
2018-09-02T07:26:10.372Z,12.20
2018-09-02T07:28:38.069Z,12.50
2018-09-02T07:31:05.811Z,11.90
2018-09-02T07:33:33.502Z,12.23
2018-09-02T07:36:01.223Z,13.23
2018-09-02T07:38:28.986Z,12.40
2018-09-02T07:40:56.669Z,12.10
2018-09-02T07:43:24.457Z,12.50
2018-09-02T07:45:52.146Z,12.93
2018-09-02T07:48:19.808Z,12.70
2018-09-02T07:50:47.507Z,12.13
2018-09-02T07:53:15.177Z,11.83
2018-09-02T07:55:42.884Z,11.80
2018-09-02T07:58:10.982Z,12.17
2018-09-02T08:00:38.885Z,11.30
2018-09-02T08:03:06.596Z,11.77
2018-09-02T08:05:34.351Z,11.63
2018-09-02T08:08:02.084Z,11.77
2018-09-02T08:10:29.806Z,11.67
2018-09-02T08:12:57.675Z,11.63
2018-09-02T08:15:25.263Z,11.77
2018-09-02T08:17:52.943Z,11.07
2018-09-02T08:20:20.666Z,11.47
2018-09-02T08:22:48.477Z,11.67
2018-09-02T08:25:16.162Z,11.63
2018-09-02T08:27:44.025Z,10.23
2018-09-02T08:30:11.742Z,10.30
2018-09-02T08:32:39.439Z,10.20
2018-09-02T08:35:07.133Z,10.47
2018-09-02T08:37:34.850Z,10.97
2018-09-02T08:40:02.574Z,10.33
2018-09-02T08:42:30.257Z,10.43
2018-09-02T08:44:58.077Z,10.50
2018-09-02T08:47:25.763Z,10.37
2018-09-02T08:49:53.461Z,10.27
2018-09-02T08:52:21.165Z,8.83
2018-09-02T08:54:48.847Z,10.07
2018-09-02T08:57:16.546Z,10.00
2018-09-02T08:59:44.222Z,10.03
2018-09-02T09:02:11.935Z,9.70
2018-09-02T09:04:39.665Z,10.00
2018-09-02T09:07:07.415Z,10.03
2018-09-02T09:09:35.130Z,10.77
2018-09-02T09:12:02.933Z,9.50
2018-09-02T09:14:30.611Z,10.13
2018-09-02T09:16:58.394Z,9.57
2018-09-02T09:19:26.258Z,10.63
2018-09-02T09:21:54.012Z,9.97
2018-09-02T09:24:21.706Z,10.03
2018-09-02T09:26:49.485Z,10.27
2018-09-02T09:29:17.224Z,9.30
2018-09-02T09:31:44.959Z,10.67
2018-09-02T09:34:12.657Z,9.60
2018-09-02T09:36:40.381Z,9.93
2018-09-02T09:39:09.436Z,8.57
2018-09-02T09:41:37.178Z,9.93
2018-09-02T09:44:04.873Z,10.00
2018-09-02T09:46:32.797Z,9.77
2018-09-02T09:49:00.505Z,10.30
2018-09-02T09:51:28.252Z,9.90
2018-09-02T09:53:56.006Z,10.07
2018-09-02T09:56:23.757Z,9.67
2018-09-02T09:58:51.430Z,10.83
2018-09-02T10:01:19.156Z,10.30
2018-09-02T10:03:46.955Z,10.60
2018-09-02T10:06:14.732Z,9.90
2018-09-02T10:08:42.429Z,9.63
2018-09-02T10:11:10.210Z,10.57
2018-09-02T10:13:37.920Z,10.13
2018-09-02T10:16:05.717Z,10.27
2018-09-02T10:18:33.548Z,10.17
2018-09-02T10:21:01.245Z,10.97
2018-09-02T10:23:28.953Z,9.87
2018-09-02T10:25:56.657Z,9.63
2018-09-02T10:28:24.401Z,10.50
2018-09-02T10:30:52.184Z,10.27
2018-09-02T10:33:20.001Z,10.30
2018-09-02T10:35:47.712Z,11.53
2018-09-02T10:38:15.420Z,10.27
2018-09-02T10:40:43.165Z,10.20
2018-09-02T10:43:10.831Z,10.28
2018-09-02T10:45:38.692Z,10.57
2018-09-02T10:48:06.556Z,10.17
2018-09-02T10:50:34.327Z,10.30
2018-09-02T10:53:02.046Z,10.47
2018-09-02T10:55:30.019Z,11.13
2018-09-02T10:57:57.763Z,10.33
2018-09-02T11:00:25.477Z,10.95
2018-09-02T11:02:53.239Z,10.65
2018-09-02T11:05:20.955Z,9.50
2018-09-02T11:07:52.830Z,10.15
2018-09-02T11:10:20.785Z,10.15
2018-09-02T11:12:48.473Z,9.55
2018-09-02T11:15:16.339Z,10.28
2018-09-02T11:17:44.169Z,10.08
2018-09-02T11:20:12.001Z,10.10
2018-09-02T11:22:39.714Z,9.53
2018-09-02T11:25:07.393Z,9.85
2018-09-02T11:27:35.080Z,10.45
2018-09-02T11:30:02.786Z,9.83
2018-09-02T11:32:31.219Z,9.00
2018-09-02T11:34:58.893Z,9.03
2018-09-02T11:37:26.601Z,10.13
2018-09-02T11:39:54.349Z,9.70
2018-09-02T11:42:22.042Z,9.65
2018-09-02T11:44:49.721Z,9.25
2018-09-02T11:47:17.481Z,9.35
2018-09-02T11:49:45.324Z,9.25
2018-09-02T11:52:13.064Z,8.95
2018-09-02T11:54:40.818Z,8.83
2018-09-02T11:57:09.472Z,9.60
2018-09-02T11:59:37.179Z,9.03
2018-09-02T12:02:04.973Z,9.03
2018-09-02T12:04:32.690Z,9.00
2018-09-02T12:07:00.357Z,8.38
2018-09-02T12:09:28.219Z,8.90
2018-09-02T12:11:55.983Z,8.53
2018-09-02T12:14:23.743Z,9.28
2018-09-02T12:16:51.506Z,8.90
2018-09-02T12:19:19.228Z,8.15
2018-09-02T12:21:47.048Z,8.63
2018-09-02T12:24:14.865Z,9.05
2018-09-02T12:26:43.533Z,9.15
2018-09-02T12:29:11.306Z,9.15
2018-09-02T12:31:39.093Z,9.45
2018-09-02T12:34:06.809Z,8.60
2018-09-02T12:36:34.554Z,8.90
2018-09-02T12:39:02.337Z,7.87
2018-09-02T12:41:30.005Z,8.28
2018-09-02T12:43:57.709Z,8.30
2018-09-02T12:46:25.453Z,8.05
2018-09-02T12:48:53.183Z,7.72
2018-09-02T12:51:21.011Z,8.20
2018-09-02T12:53:48.762Z,8.35
2018-09-02T12:56:16.427Z,8.35
2018-09-02T12:58:44.111Z,8.50
2018-09-02T13:01:11.934Z,8.30
2018-09-02T13:03:39.716Z,8.10
2018-09-02T13:06:07.448Z,7.80
2018-09-02T13:08:35.176Z,8.13
2018-09-02T13:11:02.899Z,7.33
2018-09-02T13:13:30.623Z,7.92
2018-09-02T13:15:58.334Z,8.40
2018-09-02T13:18:26.041Z,7.97
2018-09-02T13:20:53.737Z,8.23
2018-09-02T13:23:21.488Z,8.13
2018-09-02T13:25:49.209Z,7.92
2018-09-02T13:28:16.972Z,8.10
2018-09-02T13:30:44.697Z,8.15
2018-09-02T13:33:12.401Z,7.97
2018-09-02T13:35:40.130Z,8.10
2018-09-02T13:38:07.883Z,6.85
2018-09-02T13:40:35.602Z,7.40
2018-09-02T13:43:03.467Z,8.20
2018-09-02T13:45:31.210Z,7.65
2018-09-02T13:47:58.896Z,8.00
2018-09-02T13:50:26.627Z,7.67
2018-09-02T13:52:54.428Z,6.90
2018-09-02T13:55:22.184Z,7.23
2018-09-02T13:57:49.978Z,7.13
2018-09-02T14:00:17.746Z,8.03
2018-09-02T14:02:45.579Z,7.30
2018-09-02T14:05:13.288Z,7.80
2018-09-02T14:07:41.044Z,8.80
2018-09-02T14:10:08.812Z,9.07
2018-09-02T14:12:36.673Z,7.83
2018-09-02T14:15:04.952Z,7.80
2018-09-02T14:17:32.653Z,7.70
2018-09-02T14:20:00.391Z,8.03
2018-09-02T14:22:28.141Z,7.90
2018-09-02T14:24:55.862Z,9.13
2018-09-02T14:27:24.551Z,8.20
2018-09-02T14:29:52.446Z,7.93
2018-09-02T14:32:22.172Z,8.43
2018-09-02T14:34:49.910Z,8.47
2018-09-02T14:37:17.661Z,10.30
2018-09-02T14:39:45.363Z,9.13
2018-09-02T14:42:13.092Z,8.13
2018-09-02T14:44:40.860Z,7.67
2018-09-02T14:47:08.588Z,8.27
2018-09-02T14:49:36.372Z,7.77
2018-09-02T14:52:04.148Z,7.63
2018-09-02T14:54:31.923Z,9.20
2018-09-02T14:56:59.602Z,7.17
2018-09-02T14:59:27.377Z,7.27
2018-09-02T15:01:55.085Z,8.33
2018-09-02T15:04:22.886Z,7.90
2018-09-02T15:06:50.636Z,8.55
2018-09-02T15:09:18.329Z,8.53
2018-09-02T15:11:46.033Z,8.80
2018-09-02T15:14:13.942Z,8.23
2018-09-02T15:16:41.757Z,8.20
2018-09-02T15:19:09.527Z,7.90
2018-09-02T15:21:37.257Z,8.00
2018-09-02T15:24:04.994Z,8.37
2018-09-02T15:26:32.705Z,12.97
2018-09-02T15:29:00.472Z,10.43
2018-09-02T15:31:28.202Z,14.10
2018-09-02T15:33:55.926Z,10.10
2018-09-02T15:36:23.682Z,12.83
2018-09-02T15:38:51.399Z,9.90
2018-09-02T15:41:19.077Z,10.93
2018-09-02T15:43:46.913Z,11.63
2018-09-02T15:46:14.577Z,7.93
2018-09-02T15:48:42.401Z,6.97
2018-09-02T15:51:10.120Z,7.70
2018-09-02T15:53:37.844Z,7.70
2018-09-02T15:56:05.700Z,7.80
2018-09-02T15:58:33.489Z,7.93
2018-09-02T16:01:01.350Z,7.60
2018-09-02T16:03:29.073Z,7.93
2018-09-02T16:05:56.805Z,7.33
2018-09-02T16:08:24.527Z,8.43
2018-09-02T16:10:53.554Z,8.67
2018-09-02T16:13:21.301Z,7.77
2018-09-02T16:15:48.996Z,8.23
2018-09-02T16:18:16.717Z,7.97
2018-09-02T16:20:44.457Z,7.37
2018-09-02T16:23:12.190Z,8.90
2018-09-02T16:25:39.930Z,8.83
2018-09-02T16:28:07.648Z,9.20
2018-09-02T16:30:35.448Z,8.87
2018-09-02T16:33:03.161Z,9.07
2018-09-02T16:35:30.965Z,9.80
2018-09-02T16:37:58.658Z,9.87
2018-09-02T16:40:26.397Z,8.30
2018-09-02T16:42:54.165Z,8.67
2018-09-02T16:45:21.828Z,8.73
2018-09-02T16:47:49.545Z,8.90
2018-09-02T16:50:17.290Z,8.47
2018-09-02T16:52:45.009Z,9.13
2018-09-02T16:55:12.716Z,9.50
2018-09-02T16:57:40.450Z,8.90
2018-09-02T17:00:08.370Z,8.80
2018-09-02T17:02:36.136Z,9.03
2018-09-02T17:05:06.501Z,8.00
2018-09-02T17:07:34.211Z,10.07
2018-09-02T17:10:02.001Z,9.90
2018-09-02T17:12:29.842Z,9.57
2018-09-02T17:14:57.419Z,9.17
2018-09-02T17:17:25.393Z,10.10
2018-09-02T17:19:55.654Z,10.37
2018-09-02T17:22:23.386Z,10.60
2018-09-02T17:24:51.226Z,8.90
2018-09-02T17:27:18.996Z,8.70
2018-09-02T17:29:46.986Z,9.37
2018-09-02T17:32:16.904Z,9.77
2018-09-02T17:34:45.525Z,11.60
2018-09-02T17:37:13.300Z,10.23
2018-09-02T17:39:41.092Z,9.33
2018-09-02T17:42:08.854Z,9.60
2018-09-02T17:44:36.651Z,9.60
2018-09-02T17:47:04.378Z,9.00
2018-09-02T17:49:32.135Z,9.87
2018-09-02T17:51:59.899Z,9.07
2018-09-02T17:54:27.732Z,9.77
2018-09-02T17:56:55.467Z,9.43
2018-09-02T17:59:23.195Z,9.10
2018-09-02T18:01:51.600Z,8.43
2018-09-02T18:04:19.612Z,9.60
2018-09-02T18:06:47.340Z,12.60
2018-09-02T18:09:15.058Z,9.83
2018-09-02T18:11:42.798Z,9.17
2018-09-02T18:14:10.501Z,8.40
2018-09-02T18:16:38.765Z,9.80
2018-09-02T18:19:06.606Z,11.33
2018-09-02T18:21:34.413Z,10.80
2018-09-02T18:24:02.073Z,11.27
2018-09-02T18:26:29.830Z,9.67
2018-09-02T18:28:57.517Z,9.50
2018-09-02T18:31:25.211Z,9.30
2018-09-02T18:33:52.936Z,9.43
2018-09-02T18:36:20.704Z,8.87
2018-09-02T18:38:48.444Z,12.73
2018-09-02T18:41:16.170Z,8.67
2018-09-02T18:43:43.962Z,8.47
2018-09-02T18:46:12.126Z,8.70
2018-09-02T18:48:39.870Z,9.10
2018-09-02T18:51:07.578Z,8.63
2018-09-02T18:53:35.342Z,9.57
2018-09-02T18:56:03.226Z,9.17
2018-09-02T18:58:31.220Z,7.83
2018-09-02T19:00:58.933Z,8.23
2018-09-02T19:03:26.657Z,8.80
2018-09-02T19:05:54.369Z,8.83
2018-09-02T19:08:22.061Z,7.87
2018-09-02T19:10:49.790Z,8.40
2018-09-02T19:13:17.493Z,8.07
2018-09-02T19:15:45.212Z,7.73
2018-09-02T19:18:12.925Z,7.87
2018-09-02T19:20:40.631Z,8.30
2018-09-02T19:23:08.325Z,8.10
2018-09-02T19:25:36.109Z,8.17
2018-09-02T19:28:03.860Z,8.27
2018-09-02T19:30:31.549Z,12.30
2018-09-02T19:32:59.292Z,11.47
2018-09-02T19:35:26.989Z,8.03
2018-09-02T19:37:54.742Z,8.67
2018-09-02T19:40:22.520Z,8.80
2018-09-02T19:42:50.241Z,8.50
2018-09-02T19:45:17.932Z,8.57
2018-09-02T19:47:45.683Z,8.20
2018-09-02T19:50:13.421Z,8.10
2018-09-02T19:52:41.101Z,7.90
2018-09-02T19:55:08.893Z,7.47
2018-09-02T19:57:36.635Z,8.00
2018-09-02T20:00:04.562Z,7.30
2018-09-02T20:02:32.328Z,7.50
2018-09-02T20:05:00.057Z,7.43
2018-09-02T20:07:27.765Z,8.37
2018-09-02T20:09:55.449Z,7.93
2018-09-02T20:12:23.278Z,7.77
2018-09-02T20:14:50.955Z,7.60
2018-09-02T20:17:18.690Z,8.27
2018-09-02T20:19:46.404Z,8.53
2018-09-02T20:22:14.559Z,8.13
2018-09-02T20:24:42.399Z,9.17
2018-09-02T20:27:10.133Z,8.20
2018-09-02T20:29:38.356Z,8.10
2018-09-02T20:32:06.144Z,8.83
2018-09-02T20:34:33.880Z,8.40
2018-09-02T20:37:01.632Z,8.90
2018-09-02T20:39:29.409Z,7.63
2018-09-02T20:41:57.107Z,8.00
2018-09-02T20:44:24.813Z,8.17
2018-09-02T20:46:52.802Z,7.47
2018-09-02T20:49:20.501Z,7.80
2018-09-02T20:51:48.210Z,7.77
2018-09-02T20:54:15.944Z,7.60
2018-09-02T20:56:43.655Z,8.50
2018-09-02T20:59:11.437Z,7.70
2018-09-02T21:01:39.331Z,7.80
2018-09-02T21:04:07.144Z,8.13
2018-09-02T21:06:34.889Z,8.43
2018-09-02T21:09:03.302Z,8.30
2018-09-02T21:11:31.078Z,10.97
2018-09-02T21:13:58.773Z,8.33
2018-09-02T21:16:26.507Z,7.97
2018-09-02T21:18:54.208Z,7.57
2018-09-02T21:21:22.841Z,7.60
2018-09-02T21:23:50.545Z,7.20
2018-09-02T21:26:18.223Z,7.87
2018-09-02T21:28:46.027Z,7.77
2018-09-02T21:31:14.035Z,7.50
2018-09-02T21:33:41.705Z,7.37
2018-09-02T21:36:09.373Z,7.87
2018-09-02T21:38:37.111Z,7.77
2018-09-02T21:41:04.957Z,8.40
2018-09-02T21:43:32.726Z,7.70
2018-09-02T21:46:00.516Z,8.73
2018-09-02T21:48:28.225Z,7.87
2018-09-02T21:50:55.981Z,8.13
2018-09-02T21:53:23.807Z,8.60
2018-09-02T21:55:51.487Z,8.57
2018-09-02T21:58:19.177Z,7.83
2018-09-02T22:00:46.961Z,8.07
2018-09-02T22:03:14.674Z,7.60
2018-09-02T22:05:42.473Z,8.10
2018-09-02T22:08:10.244Z,8.10
2018-09-02T22:10:37.951Z,7.73
2018-09-02T22:13:05.653Z,8.07
2018-09-02T22:15:33.369Z,7.83
2018-09-02T22:18:01.107Z,7.60
2018-09-02T22:20:28.794Z,7.70
2018-09-02T22:22:56.528Z,7.80
2018-09-02T22:25:24.224Z,7.53
2018-09-02T22:27:51.907Z,8.20
2018-09-02T22:30:19.655Z,7.93
2018-09-02T22:32:47.326Z,8.23
2018-09-02T22:35:15.009Z,7.83
2018-09-02T22:37:42.732Z,7.43
2018-09-02T22:40:10.750Z,8.00
2018-09-02T22:42:38.460Z,7.40
2018-09-02T22:45:06.253Z,8.00
2018-09-02T22:47:33.909Z,8.50
2018-09-02T22:50:01.611Z,8.23
2018-09-02T22:52:29.331Z,8.00
2018-09-02T22:54:56.995Z,7.97
2018-09-02T22:57:24.753Z,8.07
2018-09-02T22:59:52.419Z,8.47
2018-09-02T23:02:20.107Z,8.43
2018-09-02T23:04:47.794Z,8.43
2018-09-02T23:07:15.495Z,8.97
2018-09-02T23:09:43.231Z,8.93
2018-09-02T23:12:11.086Z,8.53
2018-09-02T23:14:38.810Z,8.63
2018-09-02T23:17:06.497Z,7.93
2018-09-02T23:19:34.213Z,8.37
2018-09-02T23:22:01.919Z,8.20
2018-09-02T23:24:29.598Z,7.70
2018-09-02T23:26:57.263Z,8.23
2018-09-02T23:29:24.938Z,8.77
2018-09-02T23:31:52.666Z,8.10
2018-09-02T23:34:20.432Z,8.83
2018-09-02T23:36:48.152Z,8.27
2018-09-02T23:39:15.834Z,8.80
2018-09-02T23:41:43.493Z,7.80
2018-09-02T23:44:11.179Z,7.93
2018-09-02T23:46:38.902Z,8.47
2018-09-02T23:49:06.566Z,7.87
2018-09-02T23:51:34.292Z,7.93
2018-09-02T23:54:01.988Z,8.40
2018-09-02T23:56:29.665Z,8.17
2018-09-02T23:58:57.349Z,8.03
